Time;durP1;ratioP1;P1;durP2;ratioP2;P2;SDS_P1;SDS_P2;PMS_P1;PMS_P2;Temp;Humidity;BMP_temperature;BMP_pressure;BME280_temperature;BME280_humidity;BME280_pressure;Samples;Min_cycle;Max_cycle;Signal;HPM_P1;HPM_P2
2023/04/22 00:02:01;;;;;;;23.63;4.63;;;;;;;15.61;69.30;98840.13;5035993;28;20547;-74
2023/04/22 00:04:28;;;;;;;18.97;4.93;;;;;;;15.70;68.58;98836.19;5036139;28;20037;-74
2023/04/22 00:06:54;;;;;;;20.52;4.22;;;;;;;15.61;68.77;98824.22;5036361;28;20200;-72
2023/04/22 00:09:19;;;;;;;16.47;4.30;;;;;;;15.69;68.63;98822.03;5036277;28;20477;-71
2023/04/22 00:11:45;;;;;;;18.57;4.40;;;;;;;15.64;68.59;98810.78;5036347;28;20025;-74
2023/04/22 00:14:10;;;;;;;19.63;4.60;;;;;;;15.64;68.83;98802.84;5036407;28;20741;-74
2023/04/22 00:16:35;;;;;;;21.03;4.23;;;;;;;15.55;69.18;98796.19;5035742;28;20045;-74
2023/04/22 00:19:01;;;;;;;22.00;4.00;;;;;;;15.56;68.82;98779.31;5036293;28;20049;-74
2023/04/22 00:21:27;;;;;;;22.13;4.13;;;;;;;15.59;68.50;98776.53;5036339;28;20087;-74
2023/04/22 00:23:53;;;;;;;20.35;3.75;;;;;;;15.58;68.65;98779.25;5036072;28;20386;-74
2023/04/22 00:26:18;;;;;;;16.98;4.10;;;;;;;15.57;68.54;98790.81;5034758;28;20704;-74
2023/04/22 00:28:44;;;;;;;17.90;4.73;;;;;;;15.53;68.87;98831.66;5036030;28;20100;-74
2023/04/22 00:31:09;;;;;;;21.27;4.90;;;;;;;15.49;68.19;98804.44;5034536;28;20028;-74
2023/04/22 00:33:35;;;;;;;22.25;4.65;;;;;;;15.53;68.70;98826.34;5036178;28;20128;-74
2023/04/22 00:36:00;;;;;;;16.67;3.60;;;;;;;15.53;68.58;98808.66;5037910;28;20393;-74
2023/04/22 00:38:25;;;;;;;21.40;4.23;;;;;;;15.51;68.40;98810.53;5039873;28;20071;-74
2023/04/22 00:40:51;;;;;;;18.98;4.47;;;;;;;15.52;68.44;98811.38;5039573;28;20460;-74
2023/04/22 00:43:16;;;;;;;23.63;3.90;;;;;;;15.52;68.45;98803.41;5040029;28;20457;-74
2023/04/22 00:45:42;;;;;;;21.83;3.60;;;;;;;15.52;68.15;98808.72;5039892;28;20045;-74
2023/04/22 00:48:08;;;;;;;16.70;3.92;;;;;;;15.52;67.85;98803.41;5039913;28;20055;-74
2023/04/22 00:50:33;;;;;;;15.83;4.00;;;;;;;15.51;68.04;98794.63;5039802;28;20404;-74
2023/04/22 00:52:59;;;;;;;17.42;3.80;;;;;;;15.42;68.40;98790.59;5041907;28;20029;-74
2023/04/22 00:55:24;;;;;;;17.37;3.90;;;;;;;15.47;67.96;98795.69;5041361;28;20025;-74
2023/04/22 00:57:51;;;;;;;14.27;3.70;;;;;;;15.48;68.06;98798.25;5039856;28;20026;-74
2023/04/22 01:00:18;;;;;;;17.45;3.65;;;;;;;15.52;67.62;98808.72;5038269;28;20033;-74
2023/04/22 01:02:44;;;;;;;21.35;3.78;;;;;;;15.55;67.62;98814.75;5039654;28;20052;-74
2023/04/22 01:05:10;;;;;;;20.93;4.23;;;;;;;15.53;67.54;98800.69;5037930;28;20029;-74
2023/04/22 01:07:35;;;;;;;17.20;3.85;;;;;;;15.52;67.59;98793.69;5038299;28;20061;-74
2023/04/22 01:10:02;;;;;;;24.53;4.23;;;;;;;15.53;67.44;98806.00;5039222;28;20515;-74
2023/04/22 01:12:27;;;;;;;20.23;3.95;;;;;;;15.47;67.69;98801.84;5039346;28;20026;-74
2023/04/22 01:14:53;;;;;;;17.17;4.07;;;;;;;15.45;67.70;98792.25;5038131;28;20028;-74
2023/04/22 01:17:20;;;;;;;15.43;3.50;;;;;;;15.48;67.68;98802.72;5039377;28;20038;-74
2023/04/22 01:19:47;;;;;;;15.43;3.67;;;;;;;15.44;67.43;98802.00;5038967;28;20049;-74
2023/04/22 01:22:13;;;;;;;16.13;3.58;;;;;;;15.38;67.51;98789.03;5039214;28;20034;-74
2023/04/22 01:24:39;;;;;;;17.27;3.72;;;;;;;15.44;67.38;98786.09;5038768;28;20113;-74
2023/04/22 01:27:05;;;;;;;17.33;3.83;;;;;;;15.45;67.45;98777.19;5038839;28;20080;-74
2023/04/22 01:29:31;;;;;;;17.15;3.78;;;;;;;15.47;67.01;98777.13;5039193;28;20104;-74
2023/04/22 01:31:57;;;;;;;17.90;3.40;;;;;;;15.43;67.03;98787.03;5037162;28;20060;-74
2023/04/22 01:34:22;;;;;;;16.55;3.30;;;;;;;15.47;66.98;98795.69;5038803;28;20151;-74
2023/04/22 01:36:49;;;;;;;21.15;4.13;;;;;;;15.42;67.33;98806.53;5037501;28;20056;-74
2023/04/22 01:39:14;;;;;;;16.03;4.27;;;;;;;15.40;67.21;98819.00;5038655;28;20021;-74
2023/04/22 01:41:40;;;;;;;21.00;4.63;;;;;;;15.39;67.19;98824.38;5038692;28;20032;-74
2023/04/22 01:44:06;;;;;;;23.60;3.73;;;;;;;15.42;66.95;98827.75;5037304;28;20485;-74
2023/04/22 01:46:32;;;;;;;20.10;4.20;;;;;;;15.39;67.34;98850.88;5038214;28;20129;-74
2023/04/22 01:48:58;;;;;;;21.97;4.47;;;;;;;15.38;67.47;98873.03;5038601;28;20101;-74
2023/04/22 01:51:23;;;;;;;17.50;3.85;;;;;;;15.37;67.29;98890.75;5038700;28;20021;-74
2023/04/22 01:53:49;;;;;;;17.43;3.63;;;;;;;15.39;67.31;98898.63;5041874;28;20393;-74
2023/04/22 01:56:15;;;;;;;21.48;4.25;;;;;;;15.38;67.29;98911.06;5038381;28;20140;-74
2023/04/22 01:58:41;;;;;;;18.80;4.07;;;;;;;15.40;66.98;98911.84;5038406;28;20021;-74
2023/04/22 02:01:09;;;;;;;21.00;3.87;;;;;;;15.42;67.08;98902.00;5038283;28;20033;-74
2023/04/22 02:03:34;;;;;;;14.90;3.20;;;;;;;15.42;67.16;98907.31;5038252;28;20021;-72
2023/04/22 02:06:00;;;;;;;19.43;3.93;;;;;;;15.39;67.60;98915.41;5036988;28;20041;-72
2023/04/22 02:08:25;;;;;;;15.43;3.78;;;;;;;15.36;67.82;98931.47;5036906;28;20063;-72
2023/04/22 02:10:51;;;;;;;18.40;4.27;;;;;;;15.29;68.03;98927.38;5036883;28;20026;-72
2023/04/22 02:13:16;;;;;;;17.37;4.37;;;;;;;15.26;67.89;98920.44;5038134;28;20017;-72
2023/04/22 02:15:41;;;;;;;20.33;4.60;;;;;;;15.23;67.82;98909.09;5038090;28;20022;-72
2023/04/22 02:18:08;;;;;;;17.30;3.95;;;;;;;15.20;68.15;98900.34;5069778;28;20104;-72
2023/04/22 02:20:35;;;;;;;20.23;4.43;;;;;;;15.19;68.00;98881.84;5037967;28;20045;-72
2023/04/22 02:23:01;;;;;;;16.17;3.65;;;;;;;15.20;67.99;98879.13;5036220;28;20108;-72
2023/04/22 02:25:27;;;;;;;20.65;3.55;;;;;;;15.15;68.19;98883.78;5038108;28;20080;-72
2023/04/22 02:27:52;;;;;;;16.52;4.13;;;;;;;15.14;68.10;98878.53;5037901;28;20024;-72
2023/04/22 02:30:18;;;;;;;16.50;3.97;;;;;;;15.09;68.54;98876.13;5036566;28;20033;-72
2023/04/22 02:32:43;;;;;;;18.70;4.80;;;;;;;15.06;68.71;98892.13;5036386;28;20057;-72
2023/04/22 02:35:10;;;;;;;19.87;3.90;;;;;;;15.09;68.53;98904.41;5038098;28;20021;-72
2023/04/22 02:37:35;;;;;;;19.48;3.67;;;;;;;15.07;68.54;98904.47;5037656;28;20057;-72
2023/04/22 02:40:00;;;;;;;16.80;3.50;;;;;;;15.11;68.19;98905.19;5037844;28;20116;-72
2023/04/22 02:42:26;;;;;;;22.10;4.30;;;;;;;15.11;68.67;98915.81;5037348;28;20029;-72
2023/04/22 02:44:51;;;;;;;19.73;3.60;;;;;;;15.11;68.25;98929.94;5037617;28;20324;-72
2023/04/22 02:47:16;;;;;;;18.33;3.83;;;;;;;15.11;68.44;98945.84;5037326;28;20037;-72
2023/04/22 02:49:42;;;;;;;20.27;4.47;;;;;;;15.09;68.59;98968.91;5037851;28;20029;-72
2023/04/22 02:52:07;;;;;;;18.73;4.07;;;;;;;15.07;68.52;98957.47;5037570;28;20485;-72
2023/04/22 02:54:33;;;;;;;20.97;3.80;;;;;;;15.05;69.08;98964.66;5041442;28;20021;-72
2023/04/22 02:56:58;;;;;;;22.52;4.47;;;;;;;14.96;69.55;98957.09;5037232;28;20156;-72
2023/04/22 02:59:23;;;;;;;19.60;4.13;;;;;;;14.97;69.59;98948.22;5036947;28;20028;-72
2023/04/22 03:01:49;;;;;;;19.30;3.80;;;;;;;14.95;69.89;98952.72;5037267;28;20026;-72
2023/04/22 03:04:14;;;;;;;19.90;4.30;;;;;;;14.90;70.28;98963.53;5036453;28;20084;-72
2023/04/22 03:06:40;;;;;;;19.17;4.18;;;;;;;14.88;70.31;98973.34;5036521;28;20025;-72
2023/04/22 03:09:05;;;;;;;20.07;4.30;;;;;;;14.89;70.15;98972.41;5037799;28;20400;-72
2023/04/22 03:11:31;;;;;;;25.47;4.83;;;;;;;14.84;70.43;98977.91;5036280;28;20025;-72
2023/04/22 03:13:56;;;;;;;17.37;4.43;;;;;;;14.74;71.04;98981.88;5037793;28;20048;-72
2023/04/22 03:16:24;;;;;;;20.20;4.68;;;;;;;14.75;70.95;98986.25;5037458;28;20028;-72
2023/04/22 03:18:50;;;;;;;19.60;4.10;;;;;;;14.74;70.85;98984.53;5036268;28;20093;-72
2023/04/22 03:21:15;;;;;;;15.30;4.40;;;;;;;14.75;70.64;98994.19;5037290;28;20513;-72
2023/04/22 03:23:41;;;;;;;33.57;4.80;;;;;;;14.77;70.53;98987.03;5037509;28;20025;-72
2023/04/22 03:26:06;;;;;;;18.20;4.30;;;;;;;14.81;70.51;98978.03;5037342;28;20021;-72
2023/04/22 03:28:32;;;;;;;22.03;4.90;;;;;;;14.82;70.40;98982.41;5037218;28;20029;-72
2023/04/22 03:30:57;;;;;;;22.50;5.28;;;;;;;14.77;70.80;98979.97;5033898;28;20068;-72
2023/04/22 03:33:22;;;;;;;22.83;4.30;;;;;;;14.80;70.58;98971.00;5035991;28;20025;-72
2023/04/22 03:35:48;;;;;;;22.30;4.37;;;;;;;14.80;70.65;98980.75;5037363;28;20484;-72
2023/04/22 03:38:14;;;;;;;24.67;4.72;;;;;;;14.81;70.40;98991.28;5037317;28;20482;-72
2023/04/22 03:40:41;;;;;;;14.70;4.28;;;;;;;14.78;70.71;98999.34;5035556;28;20048;-72
2023/04/22 03:43:06;;;;;;;17.90;4.10;;;;;;;14.82;70.54;99000.09;5037136;28;20112;-72
2023/04/22 03:45:32;;;;;;;20.65;4.88;;;;;;;14.78;70.89;99004.66;5037055;28;20108;-72
2023/04/22 03:47:57;;;;;;;17.33;4.50;;;;;;;14.81;70.71;99007.19;5035664;28;20041;-72
2023/04/22 03:50:23;;;;;;;17.30;4.20;;;;;;;14.81;70.60;99020.44;5036927;28;20028;-72
2023/04/22 03:52:48;;;;;;;16.45;4.15;;;;;;;14.82;70.55;99019.50;5037702;28;20033;-72
2023/04/22 03:55:14;;;;;;;16.23;4.07;;;;;;;14.82;70.53;99006.25;5040040;28;20057;-72
2023/04/22 03:57:39;;;;;;;14.77;3.83;;;;;;;14.80;70.63;99002.81;5036929;28;20026;-72
2023/04/22 04:00:06;;;;;;;18.97;4.87;;;;;;;14.75;71.24;99015.38;5035562;28;20303;-72
2023/04/22 04:02:31;;;;;;;19.67;4.38;;;;;;;14.73;70.92;99009.28;5036833;28;20059;-72
2023/04/22 04:04:56;;;;;;;15.90;4.43;;;;;;;14.72;70.85;99000.50;5036733;28;20042;-72
2023/04/22 04:07:22;;;;;;;12.90;3.80;;;;;;;14.70;70.79;99006.75;5037183;28;20437;-72
2023/04/22 04:09:47;;;;;;;16.03;4.03;;;;;;;14.68;70.71;99005.94;5036896;28;20089;-72
2023/04/22 04:12:12;;;;;;;16.53;4.40;;;;;;;14.68;70.78;99004.13;5036888;28;20052;-72
2023/04/22 04:14:38;;;;;;;18.63;4.70;;;;;;;14.69;70.83;99002.38;5035314;28;20053;-72
2023/04/22 04:17:04;;;;;;;14.27;4.70;;;;;;;14.68;70.62;99012.09;5036421;28;20268;-72
2023/04/22 04:19:29;;;;;;;14.13;4.13;;;;;;;14.65;71.02;99017.53;5035277;28;20132;-72
2023/04/22 04:21:55;;;;;;;16.58;4.15;;;;;;;14.66;70.68;99021.06;5036829;28;20033;-72
2023/04/22 04:24:21;;;;;;;18.87;4.30;;;;;;;14.65;70.94;99017.53;5036703;28;20527;-72
2023/04/22 04:26:47;;;;;;;14.15;4.18;;;;;;;14.63;70.84;99019.38;5036777;28;20078;-72
2023/04/22 04:29:13;;;;;;;13.17;4.00;;;;;;;14.66;70.67;99026.34;5036331;28;20037;-72
2023/04/22 04:31:38;;;;;;;16.52;3.78;;;;;;;14.67;70.72;99034.22;5033693;28;20082;-72
2023/04/22 04:34:04;;;;;;;12.50;4.10;;;;;;;14.71;70.69;99050.91;5036748;28;20382;-72
2023/04/22 04:36:31;;;;;;;13.85;4.10;;;;;;;14.74;70.56;99045.47;5036637;28;20029;-72
2023/04/22 04:38:57;;;;;;;15.90;4.20;;;;;;;14.74;70.57;99046.34;5036520;28;20107;-72
2023/04/22 04:41:22;;;;;;;13.97;3.93;;;;;;;14.76;70.61;99043.59;5036401;28;20025;-72
2023/04/22 04:43:49;;;;;;;12.50;3.77;;;;;;;14.76;70.67;99054.22;5036294;28;20371;-72
2023/04/22 04:46:15;;;;;;;14.93;4.53;;;;;;;14.83;70.48;99061.00;5035077;28;20538;-72
2023/04/22 04:48:41;;;;;;;19.35;4.60;;;;;;;14.87;70.11;99049.34;5036429;28;20032;-72
2023/04/22 04:51:07;;;;;;;13.80;4.03;;;;;;;14.92;69.93;99044.72;5036542;28;20025;-72
2023/04/22 04:53:33;;;;;;;16.75;4.22;;;;;;;14.96;70.00;99048.09;5039997;28;20026;-72
2023/04/22 04:55:58;;;;;;;14.23;4.35;;;;;;;15.03;69.69;99067.25;5036570;28;20428;-72
2023/04/22 04:58:23;;;;;;;16.03;4.33;;;;;;;15.06;69.52;99067.13;5036450;28;20497;-72
2023/04/22 05:00:49;;;;;;;16.63;4.37;;;;;;;15.07;69.75;99074.13;5036064;28;20397;-72
2023/04/22 05:03:14;;;;;;;14.90;4.27;;;;;;;15.06;69.76;99089.19;5035061;28;20055;-72
2023/04/22 05:05:39;;;;;;;13.93;4.43;;;;;;;15.06;69.94;99090.97;5036388;28;20037;-72
2023/04/22 05:08:05;;;;;;;14.45;3.90;;;;;;;15.07;69.74;99105.94;5036327;28;20037;-72
2023/04/22 05:10:30;;;;;;;12.00;4.63;;;;;;;15.05;70.11;99105.16;5036304;28;20508;-72
2023/04/22 05:12:56;;;;;;;10.80;4.07;;;;;;;15.05;70.06;99111.34;5036141;28;20387;-72
2023/04/22 05:15:21;;;;;;;11.93;4.37;;;;;;;15.02;70.16;99107.94;5034736;28;20025;-72
2023/04/22 05:17:46;;;;;;;11.25;4.00;;;;;;;15.01;70.15;99116.81;5036082;28;20477;-72
2023/04/22 05:20:12;;;;;;;18.17;4.60;;;;;;;14.99;70.21;99129.28;5034756;28;20077;-72
2023/04/22 05:22:37;;;;;;;13.47;4.00;;;;;;;14.98;70.46;99133.72;5038823;28;20025;-72
2023/04/22 05:25:03;;;;;;;15.90;4.50;;;;;;;14.97;70.44;99141.72;5039852;28;20616;-72
2023/04/22 05:27:29;;;;;;;19.50;4.63;;;;;;;14.97;70.50;99147.03;5039770;28;20093;-72
2023/04/22 05:29:55;;;;;;;16.20;4.43;;;;;;;14.91;70.87;99159.63;5039633;28;20033;-72
2023/04/22 05:32:20;;;;;;;12.83;4.50;;;;;;;14.90;70.81;99171.16;5036409;28;20041;-72
2023/04/22 05:34:46;;;;;;;16.70;4.43;;;;;;;14.90;70.80;99181.75;5038436;28;20500;-72
2023/04/22 05:37:11;;;;;;;11.90;3.83;;;;;;;14.88;70.89;99191.56;5039510;28;20055;-72
2023/04/22 05:39:36;;;;;;;11.17;4.53;;;;;;;14.87;70.93;99196.91;5039437;28;20048;-72
2023/04/22 05:42:02;;;;;;;17.23;5.37;;;;;;;14.84;71.29;99204.97;5039298;28;20110;-72
2023/04/22 05:44:27;;;;;;;15.95;5.45;;;;;;;14.84;71.19;99208.50;5038418;28;20028;-72
2023/04/22 05:46:53;;;;;;;13.53;4.73;;;;;;;14.83;71.22;99220.03;5039007;28;20029;-72
2023/04/22 05:49:18;;;;;;;13.40;4.40;;;;;;;14.81;71.45;99221.84;5039562;28;20076;-72
2023/04/22 05:51:44;;;;;;;20.03;4.80;;;;;;;14.81;71.43;99235.09;5039452;28;20546;-72
2023/04/22 05:54:10;;;;;;;15.88;4.75;;;;;;;14.82;71.29;99243.94;5043077;28;20052;-72
2023/04/22 05:56:35;;;;;;;15.43;4.97;;;;;;;14.82;71.44;99244.78;5039087;28;20041;-72
2023/04/22 05:59:00;;;;;;;14.45;5.00;;;;;;;14.83;71.38;99248.31;5039400;28;20030;-72
2023/04/22 06:01:26;;;;;;;17.60;5.00;;;;;;;14.87;71.37;99252.56;5038949;28;20032;-72
2023/04/22 06:03:51;;;;;;;19.43;5.30;;;;;;;14.88;71.36;99260.47;5039061;28;20036;-72
2023/04/22 06:06:17;;;;;;;13.47;4.27;;;;;;;14.88;71.32;99260.47;5037674;28;20026;-72
2023/04/22 06:08:42;;;;;;;14.70;4.82;;;;;;;14.93;70.95;99268.22;5039034;28;20083;-72
2023/04/22 06:11:09;;;;;;;13.67;4.27;;;;;;;14.97;70.93;99284.88;5038885;28;20036;-72
2023/04/22 06:13:34;;;;;;;15.18;4.25;;;;;;;14.97;70.76;99290.19;5039230;28;20090;-72
2023/04/22 06:16:00;;;;;;;13.63;4.57;;;;;;;14.98;70.84;99302.53;5038571;28;20449;-72
2023/04/22 06:18:25;;;;;;;17.60;5.37;;;;;;;14.92;71.04;99307.13;5038667;28;20025;-72
2023/04/22 06:20:51;;;;;;;16.33;4.43;;;;;;;14.93;71.17;99316.81;5038548;28;20050;-72
2023/04/22 06:23:16;;;;;;;17.57;4.60;;;;;;;14.93;71.16;99305.34;5038827;28;20667;-73
2023/04/22 06:25:42;;;;;;;17.70;5.30;;;;;;;14.93;71.21;99306.22;5038780;28;20053;-72
2023/04/22 06:28:08;;;;;;;17.20;4.78;;;;;;;14.98;70.96;99305.16;5038719;28;20026;-72
2023/04/22 06:30:33;;;;;;;15.83;4.60;;;;;;;15.01;70.71;99305.06;5035031;28;20022;-72
2023/04/22 06:32:58;;;;;;;14.53;4.20;;;;;;;15.03;70.76;99292.59;5030649;28;20104;-72
2023/04/22 06:35:24;;;;;;;16.13;5.10;;;;;;;15.08;70.68;99298.63;5037141;28;20032;-72
2023/04/22 06:37:50;;;;;;;15.75;4.55;;;;;;;15.11;70.14;99314.41;5017503;28;20018;-72
2023/04/22 06:40:15;;;;;;;13.00;4.20;;;;;;;15.17;70.21;99307.97;5031886;28;20036;-72
2023/04/22 06:42:41;;;;;;;15.70;4.60;;;;;;;15.24;69.95;99314.78;5038137;28;20106;-72
2023/04/22 06:45:11;;;;;;;18.50;4.40;;;;;;;15.29;70.00;99317.25;5036857;28;20125;-72
2023/04/22 06:47:40;;;;;;;14.50;4.30;;;;;;;15.32;69.74;99322.47;5038216;28;20021;-71
2023/04/22 06:50:09;;;;;;;12.93;4.47;;;;;;;15.36;69.56;99329.38;5038091;28;20082;-72
2023/04/22 06:52:35;;;;;;;11.82;3.80;;;;;;;15.41;69.35;99331.81;5038112;28;20040;-72
2023/04/22 06:55:02;;;;;;;15.73;4.13;;;;;;;15.45;69.23;99334.31;5041805;28;20022;-71
2023/04/22 06:57:28;;;;;;;13.75;4.10;;;;;;;15.48;69.43;99341.28;5038169;28;20030;-72
2023/04/22 06:59:53;;;;;;;16.13;4.23;;;;;;;15.49;69.49;99340.34;5037923;28;20485;-72
2023/04/22 07:02:20;;;;;;;15.68;4.78;;;;;;;15.52;68.95;99344.66;5037865;28;20044;-72
2023/04/22 07:04:45;;;;;;;17.37;4.90;;;;;;;15.52;69.40;99352.63;5037619;28;20033;-72
2023/04/22 07:07:11;;;;;;;16.25;5.22;;;;;;;15.47;69.26;99353.66;5037858;28;20024;-72
2023/04/22 07:09:36;;;;;;;20.20;5.00;;;;;;;15.44;69.51;99364.41;5038139;28;20056;-72
2023/04/22 07:12:02;;;;;;;12.67;4.50;;;;;;;15.41;69.55;99375.16;5036496;28;20049;-72
2023/04/22 07:14:27;;;;;;;17.20;4.73;;;;;;;15.40;69.72;99365.47;5037694;28;20021;-72
2023/04/22 07:16:52;;;;;;;18.85;5.05;;;;;;;15.39;69.59;99381.41;5037416;28;20564;-72
2023/04/22 07:19:18;;;;;;;16.53;4.77;;;;;;;15.39;69.75;99377.00;5037552;28;20053;-71
2023/04/22 07:21:44;;;;;;;16.20;4.53;;;;;;;15.37;69.95;99373.53;5037549;28;20025;-72
2023/04/22 07:24:12;;;;;;;17.23;5.25;;;;;;;15.38;69.62;99364.66;5037503;28;20029;-72
2023/04/22 07:26:42;;;;;;;21.67;4.80;;;;;;;15.37;69.74;99362.94;5036340;28;20030;-72
2023/04/22 07:29:07;;;;;;;14.48;4.68;;;;;;;15.42;69.62;99368.91;5037402;28;20032;-72
2023/04/22 07:31:35;;;;;;;13.73;4.60;;;;;;;15.44;69.41;99369.72;5034551;28;20501;-72
2023/04/22 07:34:00;;;;;;;12.23;4.40;;;;;;;15.49;69.23;99366.91;5037503;28;20049;-71
2023/04/22 07:36:25;;;;;;;18.80;5.13;;;;;;;15.50;69.24;99371.28;5037258;28;20113;-72
2023/04/22 07:38:51;;;;;;;17.70;5.75;;;;;;;15.48;69.55;99371.31;5037204;28;20025;-72
2023/04/22 07:41:16;;;;;;;16.20;4.63;;;;;;;15.47;69.52;99376.69;5037106;28;20025;-72
2023/04/22 07:43:42;;;;;;;12.83;5.33;;;;;;;15.45;69.48;99374.09;5036941;28;20018;-72
2023/04/22 07:46:07;;;;;;;15.60;5.03;;;;;;;15.48;69.46;99381.09;5036830;28;20025;-72
2023/04/22 07:48:33;;;;;;;17.27;5.30;;;;;;;15.53;69.64;99383.53;5034596;28;20064;-72
2023/04/22 07:50:58;;;;;;;22.37;6.93;;;;;;;15.58;69.76;99376.28;5031835;28;20261;-72
2023/04/22 07:53:24;;;;;;;14.63;5.33;;;;;;;15.60;69.62;99377.94;5035980;28;20055;-72
2023/04/22 07:55:49;;;;;;;23.67;5.20;;;;;;;15.66;69.68;99368.88;5037222;28;20363;-72
2023/04/22 07:58:15;;;;;;;17.30;5.80;;;;;;;15.75;69.41;99368.50;5034932;28;20120;-72
2023/04/22 08:00:41;;;;;;;18.48;5.30;;;;;;;15.84;69.20;99367.28;5035672;28;20067;-72
2023/04/22 08:03:06;;;;;;;13.30;5.60;;;;;;;15.94;69.02;99367.78;5035499;28;20033;-72
2023/04/22 08:05:32;;;;;;;19.83;5.73;;;;;;;16.04;68.46;99369.16;5035650;28;20032;-72
2023/04/22 08:07:57;;;;;;;12.98;5.20;;;;;;;16.15;68.42;99374.00;5036769;28;20040;-70
2023/04/22 08:10:23;;;;;;;17.27;5.70;;;;;;;16.27;68.26;99379.75;5036674;28;20036;-70
2023/04/22 08:12:48;;;;;;;15.27;5.97;;;;;;;16.33;67.88;99376.81;5036799;28;20512;-70
2023/04/22 08:15:14;;;;;;;18.17;6.00;;;;;;;16.31;67.96;99386.66;5036681;28;20022;-70
2023/04/22 08:17:39;;;;;;;15.57;5.30;;;;;;;16.31;68.16;99381.34;5036764;28;20426;-70
2023/04/22 08:20:05;;;;;;;14.77;5.17;;;;;;;16.31;67.73;99389.31;5036604;28;20102;-70
2023/04/22 08:22:32;;;;;;;19.40;5.85;;;;;;;16.32;67.75;99389.25;5036510;28;20025;-71
2023/04/22 08:24:58;;;;;;;17.88;5.70;;;;;;;16.35;67.91;99393.56;5036809;28;20033;-70
2023/04/22 08:27:23;;;;;;;15.93;5.33;;;;;;;16.38;67.58;99403.22;5035890;28;20052;-70
2023/04/22 08:29:48;;;;;;;16.35;5.38;;;;;;;16.39;67.59;99399.63;5036017;28;20374;-70
2023/04/22 08:32:15;;;;;;;14.20;5.27;;;;;;;16.41;67.46;99408.38;5028555;28;20026;-70
2023/04/22 08:34:40;;;;;;;14.07;5.15;;;;;;;16.36;67.60;99409.44;4975975;28;20171;-70
2023/04/22 08:37:07;;;;;;;16.10;5.27;;;;;;;16.41;67.43;99419.03;4985005;28;20040;-70
2023/04/22 08:39:32;;;;;;;18.67;5.65;;;;;;;16.42;67.10;99423.41;4980413;28;20027;-70
2023/04/22 08:41:58;;;;;;;17.47;5.40;;;;;;;16.41;67.26;99413.72;4977711;28;20439;-70
2023/04/22 08:44:24;;;;;;;14.27;4.90;;;;;;;16.43;67.10;99401.22;4977794;28;20471;-70
2023/04/22 08:46:50;;;;;;;14.27;5.18;;;;;;;16.46;67.00;99398.44;4977342;28;20037;-70
2023/04/22 08:49:16;;;;;;;13.82;5.25;;;;;;;16.50;66.72;99392.03;4977517;28;20035;-70
2023/04/22 08:51:42;;;;;;;18.05;4.55;;;;;;;16.54;66.83;99393.66;4976332;28;20033;-70
2023/04/22 08:54:09;;;;;;;15.83;5.13;;;;;;;16.56;66.79;99402.44;4978776;28;20023;-70
2023/04/22 08:56:36;;;;;;;19.10;5.60;;;;;;;16.55;66.86;99403.38;4974608;28;20023;-70
2023/04/22 08:59:03;;;;;;;20.23;4.95;;;;;;;16.56;66.95;99413.06;4985891;28;20026;-70
2023/04/22 09:01:30;;;;;;;13.95;4.90;;;;;;;16.55;66.48;99415.78;4987275;28;20018;-70
2023/04/22 09:03:58;;;;;;;14.30;5.60;;;;;;;16.56;66.72;99413.06;4991214;28;20066;-70
2023/04/22 09:06:23;;;;;;;20.40;5.63;;;;;;;16.60;66.92;99405.81;4987412;28;20537;-70
2023/04/22 09:08:49;;;;;;;19.13;6.20;;;;;;;16.67;66.67;99409.06;4989173;28;20109;-71
2023/04/22 09:11:16;;;;;;;14.57;5.70;;;;;;;16.72;66.48;99396.44;4979801;28;20292;-70
2023/04/22 09:13:42;;;;;;;21.70;5.55;;;;;;;16.73;66.34;99408.78;4986634;28;20012;-70
2023/04/22 09:16:08;;;;;;;15.60;5.73;;;;;;;16.76;66.24;99398.06;4985715;28;20090;-70
2023/04/22 09:18:46;;;;;;;20.67;6.10;;;;;;;16.77;66.10;99402.44;4985906;28;20019;-70
2023/04/22 09:21:12;;;;;;;14.25;6.20;;;;;;;16.77;66.00;99397.13;4979100;28;20035;-72
2023/04/22 09:23:52;;;;;;;23.95;7.72;;;;;;;16.72;66.14;99394.66;4986326;28;20499;-72
2023/04/22 09:26:19;;;;;;;23.10;7.40;;;;;;;16.71;65.86;99400.03;4983818;28;20031;-72
2023/04/22 09:28:53;;;;;;;17.37;6.07;;;;;;;16.65;66.07;99404.69;4981664;28;20039;-71
2023/04/22 09:31:20;;;;;;;19.80;6.30;;;;;;;16.73;65.80;99411.47;4983774;28;20026;-72
2023/04/22 09:33:51;;;;;;;17.42;6.30;;;;;;;16.84;65.74;99408.31;4986085;28;20057;-72
2023/04/22 09:36:32;;;;;;;20.73;6.53;;;;;;;16.93;65.70;99405.28;4984109;28;20037;-72
2023/04/22 09:39:02;;;;;;;15.73;5.90;;;;;;;17.03;65.62;99413.75;4984447;28;20401;-74
2023/04/22 09:41:30;;;;;;;18.20;6.17;;;;;;;17.12;65.29;99409.78;4987115;28;20030;-71
2023/04/22 09:43:56;;;;;;;20.67;7.10;;;;;;;17.17;64.99;99407.81;4975332;28;20114;-75
2023/04/22 09:46:24;;;;;;;18.42;6.50;;;;;;;17.15;64.94;99410.53;4969086;28;20042;-71
2023/04/22 09:48:50;;;;;;;18.90;6.50;;;;;;;17.14;64.88;99418.59;4969367;28;20031;-72
2023/04/22 09:51:16;;;;;;;20.77;6.60;;;;;;;17.17;65.17;99413.97;4984797;28;20066;-72
2023/04/22 09:53:42;;;;;;;16.03;6.13;;;;;;;17.20;65.19;99419.16;4972671;28;20038;-71
2023/04/22 09:56:08;;;;;;;13.80;6.38;;;;;;;17.25;65.03;99415.44;4975118;28;20031;-72
2023/04/22 09:58:38;;;;;;;16.37;6.10;;;;;;;17.30;64.70;99416.09;4965933;28;20042;-73
2023/04/22 10:01:05;;;;;;;23.27;6.35;;;;;;;17.41;64.66;99405.81;4964054;28;20046;-73
2023/04/22 10:03:31;;;;;;;15.77;6.18;;;;;;;17.52;64.46;99405.31;4972527;28;20038;-73
2023/04/22 10:05:57;;;;;;;19.92;6.95;;;;;;;17.64;64.08;99406.53;4970484;28;20023;-73
2023/04/22 10:08:23;;;;;;;20.45;6.90;;;;;;;17.70;63.90;99408.91;4963708;28;20466;-73
2023/04/22 10:10:48;;;;;;;17.10;5.93;;;;;;;17.71;63.59;99409.78;4965993;28;20073;-73
2023/04/22 10:13:14;;;;;;;14.33;5.60;;;;;;;17.68;63.82;99413.44;4970207;28;20034;-71
2023/04/22 10:15:43;;;;;;;16.77;7.00;;;;;;;17.70;63.64;99419.53;4969600;28;20031;-70
2023/04/22 10:18:15;;;;;;;17.20;8.05;;;;;;;17.68;63.65;99421.41;4967382;28;20031;-71
2023/04/22 10:20:42;;;;;;;15.52;6.30;;;;;;;17.65;63.52;99424.22;4972463;28;20047;-72
2023/04/22 10:23:18;;;;;;;14.45;6.13;;;;;;;17.54;63.54;99421.22;4974589;28;20034;-71
2023/04/22 10:25:48;;;;;;;18.70;5.93;;;;;;;17.44;63.97;99429.63;4971994;28;20058;-71
2023/04/22 10:28:15;;;;;;;19.13;6.47;;;;;;;17.35;64.01;99432.72;4968818;28;20027;-70
2023/04/22 10:30:41;;;;;;;17.42;5.95;;;;;;;17.30;64.13;99434.72;4971885;28;20072;-72
2023/04/22 10:33:33;;;;;;;13.35;5.53;;;;;;;17.18;64.14;99439.66;4968233;28;20121;-73
2023/04/22 10:36:17;;;;;;;21.00;6.10;;;;;;;17.13;64.49;99436.34;4985163;28;20500;-73
2023/04/22 10:38:54;;;;;;;14.50;5.28;;;;;;;17.06;64.27;99442.88;4967549;28;20558;-73
2023/04/22 10:41:31;;;;;;;13.82;5.07;;;;;;;17.01;64.09;99436.91;4972027;28;20065;-73
2023/04/22 10:43:59;;;;;;;19.63;6.05;;;;;;;16.92;64.71;99441.63;4973269;28;20085;-73
2023/04/22 10:46:31;;;;;;;16.13;5.28;;;;;;;16.84;64.49;99449.09;4970749;28;20518;-72
2023/04/22 10:48:57;;;;;;;17.43;5.57;;;;;;;16.81;64.79;99451.00;4975282;28;20546;-72
2023/04/22 10:51:38;;;;;;;13.13;5.78;;;;;;;16.76;64.74;99457.41;4968085;28;20030;-72
2023/04/22 10:54:04;;;;;;;13.93;5.40;;;;;;;16.77;64.93;99460.94;4975357;28;20038;-71
2023/04/22 10:56:29;;;;;;;15.37;5.27;;;;;;;16.79;65.00;99470.56;4975118;28;20026;-71
2023/04/22 10:58:55;;;;;;;21.25;5.97;;;;;;;16.78;65.20;99473.28;4971441;28;20499;-71
2023/04/22 11:01:20;;;;;;;17.60;5.97;;;;;;;16.74;65.13;99464.56;4970459;28;20031;-71
2023/04/22 11:03:46;;;;;;;14.73;5.03;;;;;;;16.74;65.37;99463.69;4968738;28;20027;-71
2023/04/22 11:06:21;;;;;;;24.50;7.30;;;;;;;16.72;65.57;99458.47;4975203;28;20026;-71
2023/04/22 11:09:07;;;;;;;19.48;6.35;;;;;;;16.62;66.00;99465.97;4969692;28;20023;-71
2023/04/22 11:11:33;;;;;;;24.95;8.05;;;;;;;16.56;66.31;99471.53;4973554;28;20505;-71
2023/04/22 11:13:59;;;;;;;20.20;7.13;;;;;;;16.51;66.85;99481.47;4972009;28;20022;-73
2023/04/22 11:16:25;;;;;;;19.98;6.38;;;;;;;16.48;66.87;99476.28;4971814;28;20039;-73
2023/04/22 11:18:51;;;;;;;16.98;5.70;;;;;;;16.44;66.93;99461.41;4971908;28;20037;-73
2023/04/22 11:21:17;;;;;;;16.77;6.00;;;;;;;16.42;67.40;99479.22;4970789;28;20391;-72